UAL676 KEWR-KAUS
Flight info
| Callsign | UAL676 |
|---|---|
| Flight time | 3h 28m |
| Altitude | 34000 |
| Route | KEWR PARKE J6 HOUTN J6 SAAME J6 MRB J6 HVQ Q68 LITTR BROBB WINDU SEWZY6 KAUS |
| Aircraft | B772/H-SDE2E3FGHIRWY/LB1 |
Departure
| Time | 2026-04-21 00:26 |
|---|---|
| Airport | Newark Liberty International Airport (KEWR) |
Arrival
| Time | 2026-04-21 03:54 |
|---|---|
| Airport | Austin Bergstrom International Airport (KAUS) |
| Time | Latitude | Longitude | Altitude | Speed | Heading |
|---|---|---|---|---|---|
| 2026-04-20 23:57 | 40.68544 | -74.17961 | 26 ft | 0 kts | 0° |
| 2026-04-21 00:13 | 40.68546 | -74.17960 | 24 ft | 1 kts | 12° |
| 2026-04-21 00:13 | 40.68558 | -74.17939 | 29 ft | 3 kts | 71° |
| 2026-04-21 00:13 | 40.68552 | -74.17917 | 30 ft | 7 kts | 121° |
| 2026-04-21 00:13 | 40.68530 | -74.17903 | 26 ft | 8 kts | 169° |
| 2026-04-21 00:14 | 40.68498 | -74.17928 | 27 ft | 0 kts | 243° |
| 2026-04-21 00:18 | 40.68488 | -74.17958 | 27 ft | 9 kts | 249° |
| 2026-04-21 00:18 | 40.68476 | -74.18015 | 26 ft | 1 kts | 257° |
| 2026-04-21 00:18 | 40.68451 | -74.18058 | 29 ft | 4 kts | 201° |
| 2026-04-21 00:18 | 40.68438 | -74.18060 | 28 ft | 2 kts | 187° |
| 2026-04-21 00:19 | 40.68367 | -74.18056 | 26 ft | 0 kts | 174° |
| 2026-04-21 00:19 | 40.68324 | -74.18049 | 27 ft | 5 kts | 173° |
| 2026-04-21 00:19 | 40.68226 | -74.18011 | 27 ft | 22 kts | 152° |
| 2026-04-21 00:19 | 40.68095 | -74.17922 | 26 ft | 21 kts | 154° |
| 2026-04-21 00:20 | 40.68061 | -74.17908 | 28 ft | 1 kts | 168° |
| 2026-04-21 00:20 | 40.68049 | -74.17859 | 30 ft | 12 kts | 96° |
| 2026-04-21 00:20 | 40.67986 | -74.17822 | 28 ft | 12 kts | 204° |
| 2026-04-21 00:20 | 40.67873 | -74.17893 | 27 ft | 21 kts | 207° |
| 2026-04-21 00:21 | 40.67712 | -74.17997 | 26 ft | 25 kts | 205° |
| 2026-04-21 00:21 | 40.67649 | -74.18036 | 27 ft | 0 kts | 202° |
| 2026-04-21 00:21 | 40.67648 | -74.18037 | 27 ft | 0 kts | 202° |
| 2026-04-21 00:24 | 40.67637 | -74.18040 | 27 ft | 7 kts | 190° |
| 2026-04-21 00:24 | 40.67592 | -74.18022 | 30 ft | 9 kts | 143° |
| 2026-04-21 00:24 | 40.67572 | -74.17910 | 26 ft | 3 kts | 52° |
| 2026-04-21 00:24 | 40.67610 | -74.17892 | 32 ft | 14 kts | 24° |
| 2026-04-21 00:25 | 40.67854 | -74.17745 | 27 ft | 71 kts | 25° |
| 2026-04-21 00:25 | 40.68499 | -74.17339 | 28 ft | 132 kts | 25° |
| 2026-04-21 00:25 | 40.69477 | -74.16735 | 131 ft | 168 kts | 23° |
| 2026-04-21 00:25 | 40.70430 | -74.15794 | 584 ft | 174 kts | 40° |
| 2026-04-21 00:26 | 40.71257 | -74.14723 | 1369 ft | 157 kts | 41° |
| 2026-04-21 00:26 | 40.72037 | -74.13674 | 1797 ft | 169 kts | 40° |
| 2026-04-21 00:26 | 40.72886 | -74.12540 | 2249 ft | 176 kts | 40° |
| 2026-04-21 00:26 | 40.73744 | -74.11348 | 2811 ft | 182 kts | 41° |
| 2026-04-21 00:27 | 40.74651 | -74.10086 | 3163 ft | 198 kts | 40° |
| 2026-04-21 00:27 | 40.75710 | -74.08965 | 3730 ft | 189 kts | 22° |
| 2026-04-21 00:27 | 40.76892 | -74.08591 | 4552 ft | 170 kts | 354° |
| 2026-04-21 00:27 | 40.78000 | -74.09093 | 4998 ft | 171 kts | 322° |
| 2026-04-21 00:28 | 40.78726 | -74.10364 | 5325 ft | 183 kts | 291° |
| 2026-04-21 00:28 | 40.78809 | -74.12064 | 5660 ft | 194 kts | 261° |
| 2026-04-21 00:28 | 40.78411 | -74.13792 | 5998 ft | 199 kts | 257° |
| 2026-04-21 00:28 | 40.77989 | -74.15544 | 6445 ft | 201 kts | 257° |
| 2026-04-21 00:29 | 40.77558 | -74.17320 | 6740 ft | 207 kts | 257° |
| 2026-04-21 00:29 | 40.77117 | -74.19170 | 6815 ft | 216 kts | 257° |
| 2026-04-21 00:29 | 40.76676 | -74.21079 | 6851 ft | 227 kts | 257° |
| 2026-04-21 00:29 | 40.76220 | -74.23159 | 6872 ft | 242 kts | 257° |
| 2026-04-21 00:30 | 40.75753 | -74.25343 | 7015 ft | 253 kts | 257° |
| 2026-04-21 00:30 | 40.75262 | -74.27629 | 7143 ft | 267 kts | 256° |
| 2026-04-21 00:30 | 40.74686 | -74.30027 | 7331 ft | 280 kts | 255° |
| 2026-04-21 00:30 | 40.74146 | -74.32525 | 7627 ft | 285 kts | 258° |
| 2026-04-21 00:31 | 40.73695 | -74.35112 | 7888 ft | 292 kts | 261° |
| 2026-04-21 00:31 | 40.73325 | -74.37791 | 7988 ft | 300 kts | 263° |
| 2026-04-21 00:31 | 40.73017 | -74.40556 | 8144 ft | 309 kts | 265° |
| 2026-04-21 00:31 | 40.72751 | -74.43403 | 8270 ft | 315 kts | 266° |
| 2026-04-21 00:32 | 40.72514 | -74.46287 | 8541 ft | 317 kts | 266° |
| 2026-04-21 00:32 | 40.72300 | -74.49149 | 8865 ft | 317 kts | 266° |
| 2026-04-21 00:32 | 40.72095 | -74.52047 | 9174 ft | 318 kts | 267° |
| 2026-04-21 00:32 | 40.71895 | -74.54995 | 9476 ft | 319 kts | 267° |
| 2026-04-21 00:33 | 40.71704 | -74.57879 | 9847 ft | 320 kts | 267° |
| 2026-04-21 00:33 | 40.71510 | -74.60808 | 10169 ft | 321 kts | 267° |
| 2026-04-21 00:33 | 40.71314 | -74.63747 | 10427 ft | 323 kts | 267° |
| 2026-04-21 00:33 | 40.71117 | -74.66699 | 10688 ft | 324 kts | 267° |
| 2026-04-21 00:34 | 40.70919 | -74.69660 | 10943 ft | 325 kts | 266° |
| 2026-04-21 00:34 | 40.70720 | -74.72634 | 11202 ft | 326 kts | 266° |
| 2026-04-21 00:34 | 40.70520 | -74.75610 | 11439 ft | 327 kts | 266° |
| 2026-04-21 00:34 | 40.70318 | -74.78608 | 11718 ft | 329 kts | 266° |
| 2026-04-21 00:35 | 40.70115 | -74.81611 | 12046 ft | 332 kts | 266° |
| 2026-04-21 00:35 | 40.69909 | -74.84650 | 12607 ft | 331 kts | 266° |
| 2026-04-21 00:35 | 40.69702 | -74.87670 | 13103 ft | 333 kts | 266° |
| 2026-04-21 00:35 | 40.69493 | -74.90722 | 13592 ft | 336 kts | 266° |
| 2026-04-21 00:36 | 40.69281 | -74.93804 | 14112 ft | 337 kts | 266° |
| 2026-04-21 00:36 | 40.69068 | -74.96887 | 14535 ft | 340 kts | 266° |
| 2026-04-21 00:36 | 40.68852 | -75.00000 | 14961 ft | 342 kts | 266° |
| 2026-04-21 00:36 | 40.68634 | -75.03135 | 15397 ft | 344 kts | 266° |
| 2026-04-21 00:37 | 40.68402 | -75.06273 | 15852 ft | 346 kts | 264° |
| 2026-04-21 00:37 | 40.67861 | -75.09383 | 16219 ft | 353 kts | 252° |
| 2026-04-21 00:37 | 40.66700 | -75.12277 | 16611 ft | 358 kts | 239° |
| 2026-04-21 00:37 | 40.65254 | -75.14904 | 16788 ft | 359 kts | 237° |
| 2026-04-21 00:38 | 40.63769 | -75.17618 | 16822 ft | 362 kts | 240° |
| 2026-04-21 00:38 | 40.62411 | -75.20424 | 17085 ft | 366 kts | 243° |
| 2026-04-21 00:38 | 40.61129 | -75.23264 | 17587 ft | 365 kts | 243° |
| 2026-04-21 00:38 | 40.59831 | -75.26181 | 18111 ft | 365 kts | 243° |
| 2026-04-21 00:39 | 40.58552 | -75.29034 | 18527 ft | 368 kts | 243° |
| 2026-04-21 00:39 | 40.57236 | -75.31939 | 18876 ft | 371 kts | 243° |
| 2026-04-21 00:39 | 40.55902 | -75.34855 | 19244 ft | 373 kts | 243° |
| 2026-04-21 00:39 | 40.54556 | -75.37787 | 19619 ft | 375 kts | 243° |
| 2026-04-21 00:40 | 40.53201 | -75.40733 | 19976 ft | 377 kts | 243° |
| 2026-04-21 00:40 | 40.51844 | -75.43682 | 20312 ft | 379 kts | 244° |
| 2026-04-21 00:40 | 40.50467 | -75.46671 | 20531 ft | 385 kts | 244° |
| 2026-04-21 00:40 | 40.49078 | -75.49686 | 20845 ft | 386 kts | 244° |
| 2026-04-21 00:41 | 40.47693 | -75.52685 | 21407 ft | 381 kts | 245° |
| 2026-04-21 00:41 | 40.46323 | -75.55651 | 21976 ft | 376 kts | 245° |
| 2026-04-21 00:41 | 40.44984 | -75.58551 | 22606 ft | 369 kts | 245° |
| 2026-04-21 00:41 | 40.43663 | -75.61409 | 23169 ft | 362 kts | 246° |
| 2026-04-21 00:42 | 40.42367 | -75.64205 | 23787 ft | 353 kts | 247° |
| 2026-04-21 00:42 | 40.41109 | -75.66921 | 24286 ft | 345 kts | 247° |
| 2026-04-21 00:42 | 40.39881 | -75.69567 | 24785 ft | 334 kts | 248° |
| 2026-04-21 00:42 | 40.38683 | -75.72147 | 25140 ft | 328 kts | 248° |
| 2026-04-21 00:43 | 40.37510 | -75.74677 | 25390 ft | 323 kts | 248° |
| 2026-04-21 00:43 | 40.36344 | -75.77196 | 25452 ft | 324 kts | 248° |
| 2026-04-21 00:43 | 40.35165 | -75.79740 | 25311 ft | 331 kts | 250° |
| 2026-04-21 00:43 | 40.33950 | -75.82363 | 25127 ft | 341 kts | 250° |
| 2026-04-21 00:44 | 40.32706 | -75.85030 | 25203 ft | 342 kts | 249° |
| 2026-04-21 00:44 | 40.31440 | -75.87634 | 25451 ft | 334 kts | 249° |
| 2026-04-21 00:44 | 40.30200 | -75.90187 | 25652 ft | 331 kts | 249° |
| 2026-04-21 00:45 | 40.27718 | -75.95367 | 25498 ft | 341 kts | 250° |
| 2026-04-21 00:45 | 40.26505 | -75.98050 | 25524 ft | 343 kts | 250° |
| 2026-04-21 00:45 | 40.25295 | -76.00722 | 25769 ft | 339 kts | 250° |
| 2026-04-21 00:45 | 40.24089 | -76.03352 | 26030 ft | 335 kts | 250° |
| 2026-04-21 00:46 | 40.22898 | -76.05928 | 26166 ft | 334 kts | 250° |
| 2026-04-21 00:46 | 40.21669 | -76.08579 | 26136 ft | 338 kts | 250° |
| 2026-04-21 00:46 | 40.20435 | -76.11229 | 26065 ft | 344 kts | 250° |
| 2026-04-21 00:46 | 40.19198 | -76.13870 | 26132 ft | 346 kts | 249° |
| 2026-04-21 00:47 | 40.17935 | -76.16544 | 26267 ft | 344 kts | 251° |
| 2026-04-21 00:47 | 40.16677 | -76.19202 | 26391 ft | 343 kts | 251° |
| 2026-04-21 00:47 | 40.15415 | -76.21889 | 26233 ft | 354 kts | 251° |
| 2026-04-21 00:47 | 40.14102 | -76.24699 | 25980 ft | 367 kts | 250° |
| 2026-04-21 00:48 | 40.12743 | -76.27587 | 25834 ft | 377 kts | 250° |
| 2026-04-21 00:48 | 40.11368 | -76.30492 | 26038 ft | 376 kts | 250° |
| 2026-04-21 00:48 | 40.10009 | -76.33409 | 26252 ft | 376 kts | 251° |
| 2026-04-21 00:48 | 40.08666 | -76.36329 | 26444 ft | 375 kts | 251° |
| 2026-04-21 00:49 | 40.07323 | -76.39255 | 26662 ft | 375 kts | 251° |
| 2026-04-21 00:49 | 40.05977 | -76.42184 | 26880 ft | 375 kts | 251° |
| 2026-04-21 00:49 | 40.04650 | -76.45062 | 27092 ft | 375 kts | 250° |
| 2026-04-21 00:49 | 40.03302 | -76.47973 | 27300 ft | 374 kts | 251° |
| 2026-04-21 00:50 | 40.01955 | -76.50880 | 27461 ft | 373 kts | 251° |
| 2026-04-21 00:50 | 40.00611 | -76.53773 | 27659 ft | 373 kts | 251° |
| 2026-04-21 00:50 | 39.99268 | -76.56666 | 27862 ft | 372 kts | 251° |
| 2026-04-21 00:50 | 39.97929 | -76.59549 | 28097 ft | 370 kts | 251° |
| 2026-04-21 00:51 | 39.96599 | -76.62414 | 28278 ft | 368 kts | 251° |
| 2026-04-21 00:51 | 39.95279 | -76.65256 | 28439 ft | 367 kts | 251° |
| 2026-04-21 00:51 | 39.93952 | -76.68110 | 28570 ft | 367 kts | 251° |
| 2026-04-21 00:51 | 39.92631 | -76.70945 | 28706 ft | 366 kts | 251° |
| 2026-04-21 00:52 | 39.91310 | -76.73774 | 28841 ft | 365 kts | 251° |
| 2026-04-21 00:52 | 39.89989 | -76.76598 | 28991 ft | 364 kts | 251° |
| 2026-04-21 00:52 | 39.88678 | -76.79400 | 29108 ft | 363 kts | 251° |
| 2026-04-21 00:52 | 39.87365 | -76.82210 | 29155 ft | 364 kts | 251° |
| 2026-04-21 00:53 | 39.84714 | -76.87882 | 29147 ft | 369 kts | 251° |
| 2026-04-21 00:53 | 39.82489 | -76.92621 | 29296 ft | 369 kts | 251° |
| 2026-04-21 00:54 | 39.80716 | -76.96395 | 29419 ft | 369 kts | 251° |
| 2026-04-21 00:54 | 39.79375 | -76.99246 | 29503 ft | 369 kts | 251° |
| 2026-04-21 00:54 | 39.77130 | -77.04013 | 29642 ft | 369 kts | 251° |
| 2026-04-21 00:55 | 39.74438 | -77.09725 | 29731 ft | 371 kts | 251° |
| 2026-04-21 00:55 | 39.71755 | -77.15405 | 29884 ft | 371 kts | 251° |
| 2026-04-21 00:56 | 39.69049 | -77.21123 | 30054 ft | 372 kts | 251° |
| 2026-04-21 00:56 | 39.66309 | -77.26901 | 30086 ft | 374 kts | 251° |
| 2026-04-21 00:57 | 39.63593 | -77.32614 | 30236 ft | 374 kts | 251° |
| 2026-04-21 00:57 | 39.60856 | -77.38360 | 30379 ft | 375 kts | 251° |
| 2026-04-21 00:58 | 39.58104 | -77.44136 | 30417 ft | 377 kts | 251° |
| 2026-04-21 00:58 | 39.55335 | -77.49931 | 30513 ft | 378 kts | 251° |
| 2026-04-21 00:59 | 39.52562 | -77.55724 | 30659 ft | 378 kts | 251° |
| 2026-04-21 00:59 | 39.49808 | -77.61465 | 30759 ft | 377 kts | 251° |
| 2026-04-21 01:00 | 39.47044 | -77.67224 | 30914 ft | 377 kts | 251° |
| 2026-04-21 01:00 | 39.44275 | -77.72979 | 31016 ft | 377 kts | 251° |
| 2026-04-21 01:01 | 39.41491 | -77.78759 | 31089 ft | 379 kts | 250° |
| 2026-04-21 01:01 | 39.38719 | -77.84499 | 31190 ft | 377 kts | 251° |
| 2026-04-21 01:02 | 39.36223 | -77.90397 | 31184 ft | 373 kts | 256° |
| 2026-04-21 01:02 | 39.33919 | -77.96384 | 31307 ft | 372 kts | 256° |
| 2026-04-21 01:03 | 39.31591 | -78.02363 | 31412 ft | 373 kts | 255° |
| 2026-04-21 01:03 | 39.30404 | -78.05389 | 30860 ft | 383 kts | 255° |
| 2026-04-21 01:03 | 39.29182 | -78.08492 | 30608 ft | 392 kts | 254° |
| 2026-04-21 01:04 | 39.27924 | -78.11663 | 30478 ft | 401 kts | 254° |
| 2026-04-21 01:04 | 39.26638 | -78.14895 | 30376 ft | 408 kts | 254° |
| 2026-04-21 01:04 | 39.24001 | -78.21475 | 30384 ft | 418 kts | 253° |
| 2026-04-21 01:05 | 39.21293 | -78.28219 | 30337 ft | 429 kts | 253° |
| 2026-04-21 01:05 | 39.18515 | -78.35132 | 30366 ft | 438 kts | 253° |
| 2026-04-21 01:06 | 39.15699 | -78.42127 | 30376 ft | 448 kts | 252° |
| 2026-04-21 01:06 | 39.12791 | -78.49334 | 30372 ft | 458 kts | 252° |
| 2026-04-21 01:07 | 39.09824 | -78.56673 | 30369 ft | 466 kts | 252° |
| 2026-04-21 01:07 | 39.06792 | -78.64145 | 30366 ft | 473 kts | 252° |
| 2026-04-21 01:08 | 39.03724 | -78.71693 | 30350 ft | 478 kts | 251° |
| 2026-04-21 01:08 | 39.00622 | -78.79303 | 30343 ft | 482 kts | 251° |
| 2026-04-21 01:09 | 38.97494 | -78.86966 | 30350 ft | 486 kts | 251° |
| 2026-04-21 01:09 | 38.94341 | -78.94657 | 30367 ft | 487 kts | 251° |
| 2026-04-21 01:10 | 38.91178 | -79.02361 | 30387 ft | 488 kts | 251° |
| 2026-04-21 01:10 | 38.87997 | -79.10096 | 30362 ft | 490 kts | 251° |
| 2026-04-21 01:11 | 38.84804 | -79.17843 | 30328 ft | 492 kts | 251° |
| 2026-04-21 01:11 | 38.83359 | -79.21675 | 30359 ft | 475 kts | 257° |
| 2026-04-21 01:11 | 38.82399 | -79.25638 | 30366 ft | 457 kts | 269° |
| 2026-04-21 01:12 | 38.81672 | -79.33616 | 30375 ft | 444 kts | 271° |
| 2026-04-21 01:12 | 38.80510 | -79.41409 | 30378 ft | 449 kts | 264° |
| 2026-04-21 01:13 | 38.78864 | -79.49198 | 30393 ft | 455 kts | 263° |
| 2026-04-21 01:13 | 38.77280 | -79.57111 | 30384 ft | 460 kts | 265° |
| 2026-04-21 01:14 | 38.75802 | -79.65122 | 30393 ft | 464 kts | 265° |
| 2026-04-21 01:14 | 38.74341 | -79.73228 | 30358 ft | 468 kts | 265° |
| 2026-04-21 01:15 | 38.72854 | -79.81365 | 30342 ft | 471 kts | 264° |
| 2026-04-21 01:15 | 38.71341 | -79.89560 | 30374 ft | 473 kts | 264° |
| 2026-04-21 01:16 | 38.69817 | -79.97765 | 30380 ft | 475 kts | 264° |
| 2026-04-21 01:16 | 38.68284 | -80.05996 | 30374 ft | 474 kts | 264° |
| 2026-04-21 01:17 | 38.66749 | -80.14203 | 30392 ft | 474 kts | 264° |
| 2026-04-21 01:17 | 38.65212 | -80.22387 | 30369 ft | 473 kts | 264° |
| 2026-04-21 01:18 | 38.63669 | -80.30563 | 30402 ft | 472 kts | 264° |
| 2026-04-21 01:18 | 38.62120 | -80.38728 | 30381 ft | 472 kts | 264° |
| 2026-04-21 01:19 | 38.60571 | -80.46873 | 30372 ft | 469 kts | 264° |
| 2026-04-21 01:19 | 38.59041 | -80.54926 | 30345 ft | 468 kts | 263° |
| 2026-04-21 01:20 | 38.57482 | -80.63031 | 30371 ft | 471 kts | 263° |
| 2026-04-21 01:20 | 38.55907 | -80.71187 | 30375 ft | 473 kts | 263° |
| 2026-04-21 01:21 | 38.54327 | -80.79362 | 30369 ft | 474 kts | 263° |
| 2026-04-21 01:21 | 38.52744 | -80.87524 | 30354 ft | 473 kts | 263° |
| 2026-04-21 01:22 | 38.51165 | -80.95633 | 30372 ft | 472 kts | 263° |
| 2026-04-21 01:22 | 38.49572 | -81.03779 | 30367 ft | 473 kts | 263° |
| 2026-04-21 01:23 | 38.47972 | -81.11928 | 30368 ft | 473 kts | 263° |
| 2026-04-21 01:23 | 38.46367 | -81.20069 | 30347 ft | 473 kts | 263° |
| 2026-04-21 01:24 | 38.44756 | -81.28198 | 30371 ft | 473 kts | 263° |
| 2026-04-21 01:24 | 38.43139 | -81.36337 | 30357 ft | 474 kts | 263° |
| 2026-04-21 01:25 | 38.41522 | -81.44437 | 30355 ft | 474 kts | 263° |
| 2026-04-21 01:25 | 38.39892 | -81.52586 | 30369 ft | 474 kts | 263° |
| 2026-04-21 01:26 | 38.38255 | -81.60738 | 30362 ft | 476 kts | 263° |
| 2026-04-21 01:26 | 38.36603 | -81.68913 | 30339 ft | 475 kts | 263° |
| 2026-04-21 01:27 | 38.34952 | -81.77057 | 30352 ft | 473 kts | 263° |
| 2026-04-21 01:27 | 38.32936 | -81.84964 | 30379 ft | 469 kts | 258° |
| 2026-04-21 01:28 | 38.30614 | -81.92788 | 30366 ft | 475 kts | 258° |
| 2026-04-21 01:28 | 38.28317 | -82.00704 | 30361 ft | 478 kts | 258° |
| 2026-04-21 01:29 | 38.26065 | -82.08700 | 30367 ft | 481 kts | 258° |
| 2026-04-21 01:29 | 38.23810 | -82.16738 | 30354 ft | 483 kts | 258° |
| 2026-04-21 01:30 | 38.21543 | -82.24744 | 30352 ft | 484 kts | 258° |
| 2026-04-21 01:30 | 38.19251 | -82.32805 | 30356 ft | 484 kts | 258° |
| 2026-04-21 01:31 | 38.16965 | -82.40829 | 30333 ft | 483 kts | 258° |
| 2026-04-21 01:31 | 38.14665 | -82.48849 | 30345 ft | 482 kts | 258° |
| 2026-04-21 01:32 | 38.12370 | -82.56843 | 30356 ft | 482 kts | 258° |
| 2026-04-21 01:32 | 38.10064 | -82.64866 | 30356 ft | 482 kts | 258° |
| 2026-04-21 01:33 | 38.07760 | -82.72857 | 30358 ft | 483 kts | 258° |
| 2026-04-21 01:33 | 38.05445 | -82.80857 | 30335 ft | 482 kts | 258° |
| 2026-04-21 01:34 | 38.03132 | -82.88826 | 30354 ft | 481 kts | 258° |
| 2026-04-21 01:34 | 38.00814 | -82.96788 | 30351 ft | 481 kts | 258° |
| 2026-04-21 01:35 | 37.98488 | -83.04755 | 30317 ft | 481 kts | 258° |
| 2026-04-21 01:35 | 37.96176 | -83.12656 | 30355 ft | 482 kts | 258° |
| 2026-04-21 01:36 | 37.93838 | -83.20622 | 30380 ft | 482 kts | 258° |
| 2026-04-21 01:36 | 37.91487 | -83.28606 | 30365 ft | 484 kts | 258° |
| 2026-04-21 01:37 | 37.89127 | -83.36593 | 30350 ft | 484 kts | 258° |
| 2026-04-21 01:37 | 37.86764 | -83.44569 | 30356 ft | 484 kts | 258° |
| 2026-04-21 01:38 | 37.84406 | -83.52499 | 30356 ft | 484 kts | 258° |
| 2026-04-21 01:38 | 37.82035 | -83.60457 | 30351 ft | 483 kts | 258° |
| 2026-04-21 01:39 | 37.79662 | -83.68399 | 30344 ft | 483 kts | 258° |
| 2026-04-21 01:39 | 37.77282 | -83.76338 | 30363 ft | 482 kts | 257° |
| 2026-04-21 01:40 | 37.74899 | -83.84268 | 30355 ft | 483 kts | 257° |
| 2026-04-21 01:40 | 37.72509 | -83.92203 | 30327 ft | 484 kts | 257° |
| 2026-04-21 01:41 | 37.70513 | -83.98811 | 30350 ft | 484 kts | 257° |
| 2026-04-21 01:41 | 37.68105 | -84.06757 | 30355 ft | 485 kts | 257° |
| 2026-04-21 01:42 | 37.65691 | -84.14702 | 30356 ft | 485 kts | 257° |
| 2026-04-21 01:42 | 37.63261 | -84.22661 | 30355 ft | 485 kts | 257° |
| 2026-04-21 01:43 | 37.60825 | -84.30595 | 30311 ft | 485 kts | 257° |
| 2026-04-21 01:43 | 37.58402 | -84.38470 | 30364 ft | 484 kts | 257° |
| 2026-04-21 01:44 | 37.55962 | -84.46386 | 30327 ft | 485 kts | 257° |
| 2026-04-21 01:44 | 37.53518 | -84.54293 | 30346 ft | 485 kts | 257° |
| 2026-04-21 01:45 | 37.51062 | -84.62218 | 30350 ft | 484 kts | 256° |
| 2026-04-21 01:45 | 37.48608 | -84.70113 | 30329 ft | 484 kts | 256° |
| 2026-04-21 01:46 | 37.46152 | -84.78023 | 30344 ft | 485 kts | 256° |
| 2026-04-21 01:46 | 37.43705 | -84.85922 | 30339 ft | 484 kts | 256° |
| 2026-04-21 01:47 | 37.41246 | -84.93839 | 30361 ft | 486 kts | 256° |
| 2026-04-21 01:47 | 37.38781 | -85.01746 | 30368 ft | 484 kts | 256° |
| 2026-04-21 01:48 | 37.36311 | -85.09602 | 30361 ft | 481 kts | 256° |
| 2026-04-21 01:48 | 37.33869 | -85.17333 | 30369 ft | 480 kts | 256° |
| 2026-04-21 01:49 | 37.31402 | -85.25137 | 30371 ft | 479 kts | 256° |
| 2026-04-21 01:49 | 37.28946 | -85.32886 | 30333 ft | 476 kts | 256° |
| 2026-04-21 01:50 | 37.26494 | -85.40603 | 30344 ft | 477 kts | 256° |
| 2026-04-21 01:50 | 37.24042 | -85.48292 | 30349 ft | 470 kts | 256° |
| 2026-04-21 01:51 | 37.21605 | -85.55926 | 30327 ft | 469 kts | 256° |
| 2026-04-21 01:51 | 37.19187 | -85.63478 | 30325 ft | 468 kts | 256° |
| 2026-04-21 01:52 | 37.15535 | -85.74845 | 30308 ft | 467 kts | 256° |
| 2026-04-21 01:53 | 37.13103 | -85.82386 | 30314 ft | 466 kts | 256° |
| 2026-04-21 01:53 | 37.10670 | -85.89915 | 30308 ft | 465 kts | 256° |
| 2026-04-21 01:54 | 37.08237 | -85.97421 | 30317 ft | 465 kts | 256° |
| 2026-04-21 01:54 | 37.05819 | -86.04863 | 30315 ft | 463 kts | 256° |
| 2026-04-21 01:55 | 37.03389 | -86.12324 | 30305 ft | 463 kts | 256° |
| 2026-04-21 01:55 | 37.00959 | -86.19762 | 30276 ft | 458 kts | 255° |
| 2026-04-21 01:56 | 36.98555 | -86.27102 | 30313 ft | 455 kts | 255° |
| 2026-04-21 01:56 | 36.96157 | -86.34416 | 30310 ft | 454 kts | 255° |
| 2026-04-21 01:57 | 36.93763 | -86.41700 | 30297 ft | 452 kts | 255° |
| 2026-04-21 01:57 | 36.91313 | -86.48910 | 30311 ft | 448 kts | 253° |
| 2026-04-21 01:58 | 36.88735 | -86.56037 | 30331 ft | 458 kts | 253° |
| 2026-04-21 01:58 | 36.86088 | -86.63312 | 30319 ft | 460 kts | 253° |
| 2026-04-21 01:59 | 36.83436 | -86.70633 | 30318 ft | 462 kts | 253° |
| 2026-04-21 01:59 | 36.80796 | -86.77929 | 30319 ft | 462 kts | 253° |
| 2026-04-21 02:00 | 36.78151 | -86.85230 | 30322 ft | 462 kts | 253° |
| 2026-04-21 02:00 | 36.75506 | -86.92513 | 30322 ft | 460 kts | 253° |
| 2026-04-21 02:01 | 36.72874 | -86.99738 | 30328 ft | 456 kts | 252° |
| 2026-04-21 02:01 | 36.70258 | -87.06905 | 30277 ft | 451 kts | 252° |
| 2026-04-21 02:02 | 36.67681 | -87.13953 | 30307 ft | 450 kts | 252° |
| 2026-04-21 02:02 | 36.65091 | -87.21023 | 30309 ft | 448 kts | 252° |
| 2026-04-21 02:03 | 36.62504 | -87.28070 | 30303 ft | 446 kts | 252° |
| 2026-04-21 02:03 | 36.59916 | -87.35097 | 30283 ft | 445 kts | 252° |
| 2026-04-21 02:04 | 36.57345 | -87.42053 | 30298 ft | 440 kts | 252° |
| 2026-04-21 02:04 | 36.54797 | -87.48943 | 30318 ft | 438 kts | 252° |
| 2026-04-21 02:05 | 36.52245 | -87.55835 | 30325 ft | 439 kts | 252° |
| 2026-04-21 02:05 | 36.49708 | -87.62668 | 30317 ft | 436 kts | 252° |
| 2026-04-21 02:06 | 36.47167 | -87.69497 | 30296 ft | 432 kts | 252° |
| 2026-04-21 02:06 | 36.44639 | -87.76275 | 30325 ft | 435 kts | 251° |
| 2026-04-21 02:07 | 36.42069 | -87.83164 | 30322 ft | 443 kts | 251° |
| 2026-04-21 02:07 | 36.39476 | -87.90088 | 30313 ft | 442 kts | 251° |
| 2026-04-21 02:08 | 36.36882 | -87.96992 | 30314 ft | 443 kts | 251° |
| 2026-04-21 02:08 | 36.34285 | -88.03893 | 30311 ft | 441 kts | 251° |
| 2026-04-21 02:09 | 36.31679 | -88.10802 | 30278 ft | 439 kts | 251° |
| 2026-04-21 02:09 | 36.29112 | -88.17590 | 30296 ft | 433 kts | 251° |
| 2026-04-21 02:10 | 36.26572 | -88.24299 | 30299 ft | 432 kts | 251° |
| 2026-04-21 02:10 | 36.24024 | -88.31017 | 30299 ft | 429 kts | 251° |
| 2026-04-21 02:11 | 36.21483 | -88.37703 | 30294 ft | 431 kts | 250° |
| 2026-04-21 02:11 | 36.18927 | -88.44415 | 30292 ft | 431 kts | 250° |
| 2026-04-21 02:12 | 36.16366 | -88.51125 | 30276 ft | 429 kts | 250° |
| 2026-04-21 02:12 | 36.13808 | -88.57807 | 30293 ft | 431 kts | 250° |
| 2026-04-21 02:13 | 36.11231 | -88.64517 | 30279 ft | 430 kts | 250° |
| 2026-04-21 02:13 | 36.08651 | -88.71218 | 30291 ft | 431 kts | 250° |
| 2026-04-21 02:14 | 36.06088 | -88.77869 | 30281 ft | 431 kts | 250° |
| 2026-04-21 02:14 | 36.03508 | -88.84546 | 30280 ft | 430 kts | 250° |
| 2026-04-21 02:15 | 36.00937 | -88.91191 | 30285 ft | 429 kts | 250° |
| 2026-04-21 02:15 | 35.98349 | -88.97865 | 30288 ft | 430 kts | 250° |
| 2026-04-21 02:16 | 35.95750 | -89.04555 | 30301 ft | 437 kts | 250° |
| 2026-04-21 02:16 | 35.93093 | -89.11388 | 30295 ft | 442 kts | 249° |
| 2026-04-21 02:17 | 35.90424 | -89.18226 | 30290 ft | 441 kts | 249° |
| 2026-04-21 02:17 | 35.87750 | -89.25056 | 30284 ft | 440 kts | 249° |
| 2026-04-21 02:18 | 35.85093 | -89.31830 | 30296 ft | 438 kts | 249° |
| 2026-04-21 02:18 | 35.82445 | -89.38571 | 30289 ft | 437 kts | 249° |
| 2026-04-21 02:19 | 35.79796 | -89.45303 | 30291 ft | 437 kts | 249° |
| 2026-04-21 02:19 | 35.77165 | -89.51973 | 30286 ft | 433 kts | 249° |
| 2026-04-21 02:20 | 35.74527 | -89.58649 | 30259 ft | 432 kts | 249° |
| 2026-04-21 02:20 | 35.71896 | -89.65293 | 30281 ft | 431 kts | 249° |
| 2026-04-21 02:21 | 35.69273 | -89.71903 | 30271 ft | 430 kts | 249° |
| 2026-04-21 02:21 | 35.66645 | -89.78513 | 30272 ft | 429 kts | 249° |
| 2026-04-21 02:22 | 35.64038 | -89.85058 | 30272 ft | 428 kts | 249° |
| 2026-04-21 02:22 | 35.61412 | -89.91637 | 30273 ft | 429 kts | 249° |
| 2026-04-21 02:23 | 35.58775 | -89.98229 | 30268 ft | 430 kts | 249° |
| 2026-04-21 02:23 | 35.56135 | -90.04815 | 30257 ft | 430 kts | 249° |
| 2026-04-21 02:24 | 35.53479 | -90.11431 | 30276 ft | 436 kts | 248° |
| 2026-04-21 02:24 | 35.50764 | -90.18186 | 30269 ft | 443 kts | 248° |
| 2026-04-21 02:25 | 35.48039 | -90.24938 | 30259 ft | 440 kts | 248° |
| 2026-04-21 02:25 | 35.45334 | -90.31625 | 30268 ft | 440 kts | 248° |
| 2026-04-21 02:26 | 35.42616 | -90.38335 | 30251 ft | 439 kts | 248° |
| 2026-04-21 02:26 | 35.39916 | -90.44987 | 30255 ft | 432 kts | 248° |
| 2026-04-21 02:27 | 35.37238 | -90.51571 | 30276 ft | 432 kts | 248° |
| 2026-04-21 02:27 | 35.35013 | -90.57035 | 30271 ft | 431 kts | 248° |
| 2026-04-21 02:28 | 35.32334 | -90.63603 | 30283 ft | 431 kts | 248° |
| 2026-04-21 02:28 | 35.29646 | -90.70180 | 30285 ft | 431 kts | 248° |
| 2026-04-21 02:29 | 35.26938 | -90.76789 | 30284 ft | 433 kts | 247° |
| 2026-04-21 02:29 | 35.24256 | -90.83322 | 30258 ft | 432 kts | 247° |
| 2026-04-21 02:30 | 35.21567 | -90.89858 | 30288 ft | 430 kts | 247° |
| 2026-04-21 02:30 | 35.18873 | -90.96394 | 30292 ft | 430 kts | 247° |
| 2026-04-21 02:31 | 35.16178 | -91.02922 | 30289 ft | 430 kts | 247° |
| 2026-04-21 02:31 | 35.13475 | -91.09453 | 30294 ft | 430 kts | 247° |
| 2026-04-21 02:32 | 35.10774 | -91.15970 | 30280 ft | 431 kts | 247° |
| 2026-04-21 02:32 | 35.08068 | -91.22484 | 30285 ft | 430 kts | 247° |
| 2026-04-21 02:33 | 35.05359 | -91.28993 | 30291 ft | 429 kts | 247° |
| 2026-04-21 02:33 | 35.02652 | -91.35484 | 30286 ft | 429 kts | 247° |
| 2026-04-21 02:34 | 34.99944 | -91.41966 | 30297 ft | 429 kts | 246° |
| 2026-04-21 02:34 | 34.97240 | -91.48425 | 30300 ft | 433 kts | 247° |
| 2026-04-21 02:35 | 34.94481 | -91.55011 | 30268 ft | 435 kts | 246° |
| 2026-04-21 02:35 | 34.91742 | -91.61523 | 30282 ft | 430 kts | 246° |
| 2026-04-21 02:36 | 34.89007 | -91.68016 | 30280 ft | 429 kts | 246° |
| 2026-04-21 02:36 | 34.86280 | -91.74481 | 30287 ft | 430 kts | 246° |
| 2026-04-21 02:37 | 34.83547 | -91.80948 | 30284 ft | 430 kts | 246° |
| 2026-04-21 02:37 | 34.80804 | -91.87425 | 30283 ft | 429 kts | 246° |
| 2026-04-21 02:38 | 34.78062 | -91.93890 | 30275 ft | 429 kts | 246° |
| 2026-04-21 02:38 | 34.75335 | -92.00305 | 30292 ft | 429 kts | 246° |
| 2026-04-21 02:39 | 34.72587 | -92.06758 | 30294 ft | 430 kts | 246° |
| 2026-04-21 02:39 | 34.69852 | -92.13173 | 30284 ft | 427 kts | 245° |
| 2026-04-21 02:40 | 34.67092 | -92.19602 | 30301 ft | 430 kts | 245° |
| 2026-04-21 02:40 | 34.64167 | -92.26064 | 30306 ft | 442 kts | 244° |
| 2026-04-21 02:41 | 34.61125 | -92.32672 | 30297 ft | 453 kts | 244° |
| 2026-04-21 02:41 | 34.58028 | -92.39416 | 30293 ft | 463 kts | 244° |
| 2026-04-21 02:42 | 34.54892 | -92.46256 | 30298 ft | 463 kts | 244° |
| 2026-04-21 02:42 | 34.51761 | -92.53075 | 30297 ft | 463 kts | 244° |
| 2026-04-21 02:43 | 34.48631 | -92.59882 | 30293 ft | 461 kts | 244° |
| 2026-04-21 02:43 | 34.45507 | -92.66667 | 30285 ft | 460 kts | 244° |
| 2026-04-21 02:44 | 34.42402 | -92.73391 | 30280 ft | 463 kts | 244° |
| 2026-04-21 02:44 | 34.39234 | -92.80253 | 30292 ft | 469 kts | 244° |
| 2026-04-21 02:45 | 34.36055 | -92.87117 | 30285 ft | 467 kts | 244° |
| 2026-04-21 02:45 | 34.32873 | -92.93970 | 30284 ft | 466 kts | 244° |
| 2026-04-21 02:46 | 34.29693 | -93.00807 | 30283 ft | 465 kts | 244° |
| 2026-04-21 02:46 | 34.26515 | -93.07628 | 30290 ft | 466 kts | 244° |
| 2026-04-21 02:47 | 34.23318 | -93.14478 | 30276 ft | 468 kts | 244° |
| 2026-04-21 02:47 | 34.20123 | -93.21307 | 30278 ft | 467 kts | 244° |
| 2026-04-21 02:48 | 34.16941 | -93.28097 | 30256 ft | 464 kts | 244° |
| 2026-04-21 02:48 | 34.13769 | -93.34848 | 30271 ft | 461 kts | 244° |
| 2026-04-21 02:49 | 34.10600 | -93.41585 | 30275 ft | 461 kts | 244° |
| 2026-04-21 02:49 | 34.07436 | -93.48299 | 30271 ft | 460 kts | 244° |
| 2026-04-21 02:50 | 34.04274 | -93.54994 | 30268 ft | 458 kts | 244° |
| 2026-04-21 02:50 | 34.01125 | -93.61648 | 30269 ft | 457 kts | 244° |
| 2026-04-21 02:51 | 33.97991 | -93.68260 | 30267 ft | 456 kts | 244° |
| 2026-04-21 02:51 | 33.94835 | -93.74906 | 30266 ft | 453 kts | 244° |
| 2026-04-21 02:52 | 33.91712 | -93.81470 | 30249 ft | 451 kts | 243° |
| 2026-04-21 02:52 | 33.88624 | -93.87947 | 30248 ft | 444 kts | 243° |
| 2026-04-21 02:53 | 33.85539 | -93.94406 | 30261 ft | 445 kts | 243° |
| 2026-04-21 02:53 | 33.82459 | -94.00845 | 30257 ft | 444 kts | 243° |
| 2026-04-21 02:54 | 33.79379 | -94.07273 | 30264 ft | 444 kts | 243° |
| 2026-04-21 02:54 | 33.76298 | -94.13689 | 30261 ft | 442 kts | 243° |
| 2026-04-21 02:55 | 33.73224 | -94.20080 | 30252 ft | 440 kts | 243° |
| 2026-04-21 02:55 | 33.70171 | -94.26415 | 30258 ft | 437 kts | 243° |
| 2026-04-21 02:56 | 33.67127 | -94.32720 | 30263 ft | 436 kts | 243° |
| 2026-04-21 02:56 | 33.62584 | -94.42112 | 30262 ft | 435 kts | 243° |
| 2026-04-21 02:57 | 33.59559 | -94.48353 | 30240 ft | 429 kts | 243° |
| 2026-04-21 02:57 | 33.56579 | -94.54487 | 30255 ft | 421 kts | 243° |
| 2026-04-21 02:58 | 33.53638 | -94.60529 | 30256 ft | 417 kts | 242° |
| 2026-04-21 02:58 | 33.50732 | -94.66492 | 30261 ft | 414 kts | 242° |
| 2026-04-21 02:59 | 33.47837 | -94.72425 | 30263 ft | 412 kts | 242° |
| 2026-04-21 02:59 | 33.44941 | -94.78352 | 30258 ft | 412 kts | 242° |
| 2026-04-21 03:00 | 33.42034 | -94.84291 | 30266 ft | 415 kts | 242° |
| 2026-04-21 03:00 | 33.39119 | -94.90233 | 30267 ft | 414 kts | 242° |
| 2026-04-21 03:01 | 33.36205 | -94.96165 | 30267 ft | 413 kts | 242° |
| 2026-04-21 03:01 | 33.33307 | -95.02054 | 30268 ft | 413 kts | 242° |
| 2026-04-21 03:02 | 33.30387 | -95.07977 | 30273 ft | 413 kts | 241° |
| 2026-04-21 03:02 | 33.27470 | -95.13884 | 30275 ft | 414 kts | 241° |
| 2026-04-21 03:03 | 33.24542 | -95.19806 | 30270 ft | 414 kts | 241° |
| 2026-04-21 03:03 | 33.21618 | -95.25709 | 30269 ft | 414 kts | 241° |
| 2026-04-21 03:04 | 33.18690 | -95.31611 | 30272 ft | 414 kts | 241° |
| 2026-04-21 03:04 | 33.15756 | -95.37516 | 30283 ft | 414 kts | 240° |
| 2026-04-21 03:05 | 33.12827 | -95.43401 | 30282 ft | 416 kts | 240° |
| 2026-04-21 03:05 | 33.09881 | -95.49308 | 30284 ft | 414 kts | 240° |
| 2026-04-21 03:06 | 33.06936 | -95.55206 | 30295 ft | 414 kts | 240° |
| 2026-04-21 03:06 | 33.03986 | -95.61105 | 30269 ft | 416 kts | 240° |
| 2026-04-21 03:07 | 33.01006 | -95.67051 | 30271 ft | 423 kts | 241° |
| 2026-04-21 03:07 | 32.97960 | -95.73127 | 30244 ft | 427 kts | 240° |
| 2026-04-21 03:08 | 32.94932 | -95.79151 | 30247 ft | 420 kts | 240° |
| 2026-04-21 03:08 | 32.91940 | -95.85091 | 30275 ft | 418 kts | 240° |
| 2026-04-21 03:09 | 32.88945 | -95.91030 | 30251 ft | 417 kts | 240° |
| 2026-04-21 03:09 | 32.85960 | -95.96940 | 30258 ft | 417 kts | 240° |
| 2026-04-21 03:10 | 32.82971 | -96.02851 | 30283 ft | 418 kts | 240° |
| 2026-04-21 03:10 | 32.79975 | -96.08763 | 30289 ft | 418 kts | 240° |
| 2026-04-21 03:11 | 32.76970 | -96.14682 | 30296 ft | 419 kts | 240° |
| 2026-04-21 03:11 | 32.74006 | -96.20507 | 30174 ft | 405 kts | 240° |
| 2026-04-21 03:12 | 32.72558 | -96.23352 | 29729 ft | 401 kts | 239° |
| 2026-04-21 03:12 | 32.71123 | -96.26172 | 29176 ft | 399 kts | 239° |
| 2026-04-21 03:12 | 32.69682 | -96.29002 | 28607 ft | 398 kts | 239° |
| 2026-04-21 03:12 | 32.68251 | -96.31810 | 28078 ft | 397 kts | 239° |
| 2026-04-21 03:13 | 32.66827 | -96.34602 | 27606 ft | 394 kts | 239° |
| 2026-04-21 03:13 | 32.65890 | -96.36437 | 27289 ft | 393 kts | 239° |
| 2026-04-21 03:13 | 32.64476 | -96.39204 | 26843 ft | 390 kts | 239° |
| 2026-04-21 03:13 | 32.63072 | -96.41949 | 26377 ft | 388 kts | 239° |
| 2026-04-21 03:14 | 32.61673 | -96.44682 | 25939 ft | 386 kts | 240° |
| 2026-04-21 03:14 | 32.60284 | -96.47394 | 25489 ft | 385 kts | 239° |
| 2026-04-21 03:14 | 32.58892 | -96.50111 | 25004 ft | 384 kts | 239° |
| 2026-04-21 03:14 | 32.57508 | -96.52810 | 24570 ft | 383 kts | 239° |
| 2026-04-21 03:15 | 32.56127 | -96.55500 | 24155 ft | 381 kts | 239° |
| 2026-04-21 03:15 | 32.54753 | -96.58174 | 23736 ft | 379 kts | 239° |
| 2026-04-21 03:15 | 32.53387 | -96.60832 | 23273 ft | 377 kts | 239° |
| 2026-04-21 03:15 | 32.52024 | -96.63481 | 22829 ft | 375 kts | 239° |
| 2026-04-21 03:16 | 32.50668 | -96.66114 | 22369 ft | 373 kts | 239° |
| 2026-04-21 03:16 | 32.49326 | -96.68720 | 21869 ft | 371 kts | 239° |
| 2026-04-21 03:16 | 32.47987 | -96.71318 | 21339 ft | 367 kts | 239° |
| 2026-04-21 03:16 | 32.46656 | -96.73898 | 20743 ft | 365 kts | 239° |
| 2026-04-21 03:17 | 32.45352 | -96.76426 | 20119 ft | 365 kts | 239° |
| 2026-04-21 03:17 | 32.44019 | -96.79008 | 19485 ft | 362 kts | 239° |
| 2026-04-21 03:17 | 32.42711 | -96.81540 | 18872 ft | 360 kts | 239° |
| 2026-04-21 03:17 | 32.41420 | -96.84036 | 18316 ft | 358 kts | 239° |
| 2026-04-21 03:18 | 32.40124 | -96.86538 | 17814 ft | 356 kts | 239° |
| 2026-04-21 03:18 | 32.38576 | -96.88773 | 17389 ft | 352 kts | 218° |
| 2026-04-21 03:18 | 32.36409 | -96.90179 | 17337 ft | 361 kts | 203° |
| 2026-04-21 03:18 | 32.34010 | -96.91099 | 17291 ft | 363 kts | 196° |
| 2026-04-21 03:19 | 32.31547 | -96.91708 | 17267 ft | 360 kts | 192° |
| 2026-04-21 03:19 | 32.29076 | -96.92194 | 17268 ft | 359 kts | 191° |
| 2026-04-21 03:19 | 32.26604 | -96.92656 | 17274 ft | 360 kts | 191° |
| 2026-04-21 03:19 | 32.24119 | -96.93131 | 17284 ft | 361 kts | 192° |
| 2026-04-21 03:20 | 32.21639 | -96.93625 | 17288 ft | 362 kts | 192° |
| 2026-04-21 03:20 | 32.19157 | -96.94137 | 17286 ft | 363 kts | 192° |
| 2026-04-21 03:20 | 32.16671 | -96.94662 | 17291 ft | 363 kts | 192° |
| 2026-04-21 03:20 | 32.14209 | -96.95188 | 17282 ft | 363 kts | 193° |
| 2026-04-21 03:21 | 32.11699 | -96.95727 | 17285 ft | 362 kts | 193° |
| 2026-04-21 03:21 | 32.09257 | -96.96253 | 17288 ft | 361 kts | 193° |
| 2026-04-21 03:21 | 32.06791 | -96.96783 | 17246 ft | 356 kts | 193° |
| 2026-04-21 03:21 | 32.04380 | -96.97300 | 17172 ft | 346 kts | 193° |
| 2026-04-21 03:22 | 32.02052 | -96.97798 | 17067 ft | 334 kts | 193° |
| 2026-04-21 03:22 | 31.99796 | -96.98281 | 16919 ft | 325 kts | 193° |
| 2026-04-21 03:22 | 31.97580 | -96.98757 | 16501 ft | 324 kts | 193° |
| 2026-04-21 03:22 | 31.95341 | -96.99240 | 15832 ft | 332 kts | 193° |
| 2026-04-21 03:23 | 31.93045 | -96.99735 | 15269 ft | 337 kts | 192° |
| 2026-04-21 03:23 | 31.90721 | -97.00234 | 14766 ft | 340 kts | 192° |
| 2026-04-21 03:23 | 31.88382 | -97.00735 | 14274 ft | 343 kts | 192° |
| 2026-04-21 03:23 | 31.86033 | -97.01236 | 13856 ft | 343 kts | 192° |
| 2026-04-21 03:24 | 31.83722 | -97.01727 | 13503 ft | 340 kts | 192° |
| 2026-04-21 03:24 | 31.81404 | -97.02221 | 13150 ft | 337 kts | 192° |
| 2026-04-21 03:24 | 31.79106 | -97.02710 | 12977 ft | 336 kts | 192° |
| 2026-04-21 03:24 | 31.76794 | -97.03204 | 12983 ft | 338 kts | 192° |
| 2026-04-21 03:25 | 31.74486 | -97.03695 | 12973 ft | 336 kts | 192° |
| 2026-04-21 03:25 | 31.72187 | -97.04185 | 12970 ft | 335 kts | 192° |
| 2026-04-21 03:25 | 31.69889 | -97.04674 | 12974 ft | 336 kts | 192° |
| 2026-04-21 03:25 | 31.67584 | -97.05165 | 12978 ft | 336 kts | 192° |
| 2026-04-21 03:26 | 31.65283 | -97.05654 | 12979 ft | 337 kts | 192° |
| 2026-04-21 03:26 | 31.62972 | -97.06145 | 13001 ft | 337 kts | 192° |
| 2026-04-21 03:26 | 31.60670 | -97.06634 | 13002 ft | 337 kts | 192° |
| 2026-04-21 03:26 | 31.58360 | -97.07125 | 12996 ft | 337 kts | 192° |
| 2026-04-21 03:27 | 31.56051 | -97.07615 | 13000 ft | 336 kts | 192° |
| 2026-04-21 03:27 | 31.53754 | -97.08103 | 12999 ft | 336 kts | 192° |
| 2026-04-21 03:27 | 31.51480 | -97.08675 | 12991 ft | 332 kts | 197° |
| 2026-04-21 03:27 | 31.49267 | -97.09456 | 12994 ft | 331 kts | 201° |
| 2026-04-21 03:28 | 31.47099 | -97.10364 | 12998 ft | 332 kts | 202° |
| 2026-04-21 03:28 | 31.44952 | -97.11291 | 13013 ft | 333 kts | 202° |
| 2026-04-21 03:28 | 31.42765 | -97.12217 | 13016 ft | 335 kts | 201° |
| 2026-04-21 03:28 | 31.40534 | -97.13132 | 13015 ft | 336 kts | 201° |
| 2026-04-21 03:29 | 31.38346 | -97.14007 | 13013 ft | 337 kts | 200° |
| 2026-04-21 03:29 | 31.36125 | -97.14882 | 13010 ft | 336 kts | 200° |
| 2026-04-21 03:29 | 31.33902 | -97.15751 | 13007 ft | 336 kts | 200° |
| 2026-04-21 03:29 | 31.31684 | -97.16616 | 12987 ft | 335 kts | 200° |
| 2026-04-21 03:30 | 31.29473 | -97.17478 | 12990 ft | 334 kts | 200° |
| 2026-04-21 03:30 | 31.27276 | -97.18335 | 12994 ft | 333 kts | 200° |
| 2026-04-21 03:30 | 31.25082 | -97.19190 | 12997 ft | 332 kts | 200° |
| 2026-04-21 03:30 | 31.22895 | -97.20043 | 13001 ft | 331 kts | 200° |
| 2026-04-21 03:31 | 31.20708 | -97.20895 | 13008 ft | 331 kts | 200° |
| 2026-04-21 03:31 | 31.18518 | -97.21749 | 13007 ft | 331 kts | 200° |
| 2026-04-21 03:31 | 31.16329 | -97.22602 | 13014 ft | 332 kts | 200° |
| 2026-04-21 03:31 | 31.14143 | -97.23454 | 13005 ft | 333 kts | 200° |
| 2026-04-21 03:32 | 31.11996 | -97.24289 | 12996 ft | 324 kts | 200° |
| 2026-04-21 03:32 | 31.09901 | -97.25103 | 12987 ft | 309 kts | 200° |
| 2026-04-21 03:32 | 31.07909 | -97.25878 | 12995 ft | 298 kts | 200° |
| 2026-04-21 03:32 | 31.05924 | -97.26651 | 13010 ft | 301 kts | 200° |
| 2026-04-21 03:33 | 31.03945 | -97.27421 | 13000 ft | 298 kts | 200° |
| 2026-04-21 03:33 | 31.01980 | -97.28184 | 12995 ft | 296 kts | 201° |
| 2026-04-21 03:33 | 31.00082 | -97.28921 | 12996 ft | 293 kts | 201° |
| 2026-04-21 03:33 | 30.98100 | -97.29691 | 12992 ft | 293 kts | 201° |
| 2026-04-21 03:34 | 30.96161 | -97.30444 | 12964 ft | 293 kts | 201° |
| 2026-04-21 03:34 | 30.94227 | -97.31194 | 12659 ft | 294 kts | 201° |
| 2026-04-21 03:34 | 30.92284 | -97.31947 | 12246 ft | 294 kts | 201° |
| 2026-04-21 03:34 | 30.90346 | -97.32703 | 11873 ft | 293 kts | 201° |
| 2026-04-21 03:35 | 30.88424 | -97.33457 | 11541 ft | 290 kts | 201° |
| 2026-04-21 03:35 | 30.86511 | -97.34206 | 11199 ft | 288 kts | 201° |
| 2026-04-21 03:35 | 30.84615 | -97.34949 | 10851 ft | 287 kts | 201° |
| 2026-04-21 03:35 | 30.82732 | -97.35685 | 10516 ft | 285 kts | 200° |
| 2026-04-21 03:36 | 30.80870 | -97.36431 | 10168 ft | 280 kts | 203° |
| 2026-04-21 03:36 | 30.79096 | -97.37364 | 9695 ft | 280 kts | 208° |
| 2026-04-21 03:36 | 30.77389 | -97.38385 | 9349 ft | 278 kts | 208° |
| 2026-04-21 03:36 | 30.75678 | -97.39414 | 9038 ft | 275 kts | 208° |
| 2026-04-21 03:37 | 30.73981 | -97.40414 | 8696 ft | 273 kts | 207° |
| 2026-04-21 03:37 | 30.72283 | -97.41396 | 8364 ft | 271 kts | 206° |
| 2026-04-21 03:37 | 30.70572 | -97.42376 | 8041 ft | 270 kts | 206° |
| 2026-04-21 03:37 | 30.68899 | -97.43330 | 7984 ft | 268 kts | 206° |
| 2026-04-21 03:38 | 30.67238 | -97.44274 | 7975 ft | 270 kts | 206° |
| 2026-04-21 03:38 | 30.65532 | -97.45208 | 7968 ft | 263 kts | 203° |
| 2026-04-21 03:38 | 30.63873 | -97.45946 | 7957 ft | 254 kts | 199° |
| 2026-04-21 03:38 | 30.62211 | -97.46599 | 7972 ft | 251 kts | 198° |
| 2026-04-21 03:39 | 30.60557 | -97.47234 | 8013 ft | 248 kts | 199° |
| 2026-04-21 03:39 | 30.58922 | -97.47864 | 7995 ft | 248 kts | 199° |
| 2026-04-21 03:39 | 30.57286 | -97.48502 | 7987 ft | 247 kts | 199° |
| 2026-04-21 03:39 | 30.55656 | -97.49144 | 7967 ft | 246 kts | 199° |
| 2026-04-21 03:40 | 30.54042 | -97.49785 | 7955 ft | 244 kts | 199° |
| 2026-04-21 03:40 | 30.52441 | -97.50425 | 7769 ft | 241 kts | 199° |
| 2026-04-21 03:40 | 30.50882 | -97.51049 | 7587 ft | 232 kts | 199° |
| 2026-04-21 03:40 | 30.49386 | -97.51650 | 7389 ft | 224 kts | 199° |
| 2026-04-21 03:41 | 30.47933 | -97.52236 | 7123 ft | 219 kts | 198° |
| 2026-04-21 03:41 | 30.46495 | -97.52792 | 6783 ft | 217 kts | 197° |
| 2026-04-21 03:41 | 30.45064 | -97.53335 | 6422 ft | 216 kts | 196° |
| 2026-04-21 03:41 | 30.43637 | -97.53875 | 6117 ft | 215 kts | 196° |
| 2026-04-21 03:42 | 30.42234 | -97.54406 | 5818 ft | 209 kts | 195° |
| 2026-04-21 03:42 | 30.40873 | -97.54920 | 5495 ft | 203 kts | 195° |
| 2026-04-21 03:42 | 30.39544 | -97.55424 | 5123 ft | 200 kts | 194° |
| 2026-04-21 03:42 | 30.38237 | -97.55919 | 4703 ft | 199 kts | 194° |
| 2026-04-21 03:43 | 30.36910 | -97.56420 | 4284 ft | 197 kts | 194° |
| 2026-04-21 03:43 | 30.35627 | -97.56906 | 3886 ft | 196 kts | 194° |
| 2026-04-21 03:43 | 30.34339 | -97.57395 | 3495 ft | 194 kts | 193° |
| 2026-04-21 03:43 | 30.33055 | -97.57881 | 3089 ft | 193 kts | 193° |
| 2026-04-21 03:44 | 30.31778 | -97.58365 | 2688 ft | 193 kts | 192° |
| 2026-04-21 03:44 | 30.30499 | -97.58850 | 2259 ft | 193 kts | 192° |
| 2026-04-21 03:44 | 30.29207 | -97.59337 | 2141 ft | 194 kts | 192° |
| 2026-04-21 03:44 | 30.27941 | -97.59817 | 2118 ft | 191 kts | 192° |
| 2026-04-21 03:45 | 30.26664 | -97.60300 | 2117 ft | 195 kts | 192° |
| 2026-04-21 03:45 | 30.25376 | -97.60787 | 2107 ft | 194 kts | 192° |
| 2026-04-21 03:45 | 30.24077 | -97.61278 | 2112 ft | 199 kts | 192° |
| 2026-04-21 03:45 | 30.22746 | -97.61781 | 2112 ft | 201 kts | 191° |
| 2026-04-21 03:46 | 30.21442 | -97.62275 | 2093 ft | 196 kts | 192° |
| 2026-04-21 03:46 | 30.20161 | -97.62762 | 2093 ft | 190 kts | 191° |
| 2026-04-21 03:46 | 30.18925 | -97.63230 | 2082 ft | 184 kts | 192° |
| 2026-04-21 03:46 | 30.17729 | -97.63799 | 2104 ft | 189 kts | 200° |
| 2026-04-21 03:47 | 30.16531 | -97.64481 | 2103 ft | 191 kts | 197° |
| 2026-04-21 03:47 | 30.15325 | -97.65075 | 2108 ft | 190 kts | 197° |
| 2026-04-21 03:47 | 30.14126 | -97.65685 | 2100 ft | 187 kts | 195° |
| 2026-04-21 03:47 | 30.12887 | -97.66012 | 2110 ft | 182 kts | 180° |
| 2026-04-21 03:48 | 30.11624 | -97.66143 | 2101 ft | 180 kts | 180° |
| 2026-04-21 03:48 | 30.10389 | -97.66308 | 2109 ft | 174 kts | 181° |
| 2026-04-21 03:48 | 30.09229 | -97.66499 | 2104 ft | 169 kts | 181° |
| 2026-04-21 03:48 | 30.08048 | -97.66700 | 2105 ft | 175 kts | 182° |
| 2026-04-21 03:49 | 30.06826 | -97.66898 | 2098 ft | 179 kts | 182° |
| 2026-04-21 03:49 | 30.05682 | -97.67375 | 2066 ft | 180 kts | 213° |
| 2026-04-21 03:49 | 30.05054 | -97.68674 | 2095 ft | 200 kts | 255° |
| 2026-04-21 03:49 | 30.05257 | -97.70277 | 2095 ft | 209 kts | 296° |
| 2026-04-21 03:50 | 30.06252 | -97.71454 | 2083 ft | 203 kts | 336° |
| 2026-04-21 03:50 | 30.07571 | -97.71676 | 2106 ft | 187 kts | 18° |
| 2026-04-21 03:50 | 30.08703 | -97.71124 | 1905 ft | 169 kts | 47° |
| 2026-04-21 03:50 | 30.09277 | -97.70071 | 1465 ft | 146 kts | 86° |
| 2026-04-21 03:51 | 30.09361 | -97.68990 | 1476 ft | 139 kts | 76° |
| 2026-04-21 03:51 | 30.09829 | -97.68068 | 1470 ft | 134 kts | 42° |
| 2026-04-21 03:51 | 30.10719 | -97.67790 | 1173 ft | 144 kts | 6° |
| 2026-04-21 03:51 | 30.11707 | -97.67747 | 1105 ft | 137 kts | 5° |
| 2026-04-21 03:52 | 30.12682 | -97.67717 | 1131 ft | 146 kts | 0° |
| 2026-04-21 03:52 | 30.13738 | -97.67743 | 1370 ft | 155 kts | 2° |
| 2026-04-21 03:52 | 30.14733 | -97.67776 | 1103 ft | 138 kts | 2° |
| 2026-04-21 03:52 | 30.15733 | -97.67775 | 1075 ft | 140 kts | 1° |
| 2026-04-21 03:53 | 30.16645 | -97.67817 | 675 ft | 132 kts | 358° |
| 2026-04-21 03:53 | 30.17548 | -97.67841 | 596 ft | 120 kts | 359° |
| 2026-04-21 03:53 | 30.18351 | -97.67862 | 481 ft | 109 kts | 358° |
| 2026-04-21 03:53 | 30.19045 | -97.67873 | 503 ft | 91 kts | 359° |
| 2026-04-21 03:54 | 30.19617 | -97.67891 | 507 ft | 76 kts | 358° |
| 2026-04-21 03:54 | 30.20109 | -97.67904 | 516 ft | 63 kts | 359° |
| 2026-04-21 03:54 | 30.20512 | -97.67912 | 526 ft | 53 kts | 358° |
| 2026-04-21 03:54 | 30.20850 | -97.67922 | 530 ft | 45 kts | 358° |
| 2026-04-21 03:55 | 30.21136 | -97.67931 | 534 ft | 38 kts | 358° |
| 2026-04-21 03:55 | 30.21307 | -97.67927 | 533 ft | 7 kts | 28° |
| 2026-04-21 03:55 | 30.21348 | -97.67830 | 534 ft | 13 kts | 88° |
| 2026-04-21 03:55 | 30.21349 | -97.67800 | 534 ft | 0 kts | 88° |
| 2026-04-21 03:57 | 30.21349 | -97.67786 | 534 ft | 8 kts | 89° |
| 2026-04-21 03:57 | 30.21350 | -97.67698 | 535 ft | 8 kts | 89° |
| 2026-04-21 03:58 | 30.21332 | -97.67582 | 535 ft | 14 kts | 127° |
| 2026-04-21 03:58 | 30.21267 | -97.67542 | 534 ft | 18 kts | 161° |
| 2026-04-21 03:58 | 30.21081 | -97.67482 | 535 ft | 21 kts | 165° |
| 2026-04-21 03:58 | 30.20988 | -97.67453 | 534 ft | 21 kts | 165° |
| 2026-04-21 03:59 | 30.20944 | -97.67440 | 533 ft | 10 kts | 165° |
| 2026-04-21 03:59 | 30.20852 | -97.67412 | 531 ft | 17 kts | 166° |
| 2026-04-21 03:59 | 30.20718 | -97.67373 | 531 ft | 23 kts | 164° |
| 2026-04-21 04:00 | 30.20397 | -97.67346 | 524 ft | 19 kts | 179° |
| 2026-04-21 04:00 | 30.20277 | -97.67343 | 521 ft | 17 kts | 179° |
| 2026-04-21 04:00 | 30.20141 | -97.67339 | 517 ft | 21 kts | 178° |
| 2026-04-21 04:00 | 30.20089 | -97.67279 | 516 ft | 13 kts | 97° |
| 2026-04-21 04:01 | 30.20088 | -97.67161 | 516 ft | 16 kts | 89° |
| 2026-04-21 04:01 | 30.20090 | -97.67121 | 516 ft | 4 kts | 84° |
| 2026-04-21 04:01 | 30.20093 | -97.67079 | 517 ft | 6 kts | 85° |
| 2026-04-21 04:01 | 30.20095 | -97.67014 | 517 ft | 11 kts | 89° |
| 2026-04-21 04:02 | 30.20094 | -97.66910 | 517 ft | 14 kts | 97° |
| 2026-04-21 04:02 | 30.20090 | -97.66882 | 517 ft | 6 kts | 99° |
| 2026-04-21 04:02 | 30.20064 | -97.66834 | 516 ft | 9 kts | 139° |
| 2026-04-21 04:02 | 30.20004 | -97.66773 | 515 ft | 14 kts | 126° |
| 2026-04-21 04:03 | 30.19999 | -97.66665 | 514 ft | 9 kts | 83° |
| 2026-04-21 04:03 | 30.20007 | -97.66600 | 513 ft | 1 kts | 82° |
| 2026-04-21 04:03 | 30.20012 | -97.66571 | 512 ft | 7 kts | 78° |
| 2026-04-21 04:03 | 30.20030 | -97.66492 | 509 ft | 13 kts | 76° |
| 2026-04-21 04:04 | 30.20032 | -97.66384 | 506 ft | 16 kts | 89° |
| 2026-04-21 04:04 | 30.20043 | -97.66248 | 501 ft | 7 kts | 84° |
| 2026-04-21 04:04 | 30.20048 | -97.66224 | 500 ft | 3 kts | 67° |
| 2026-04-21 04:04 | 30.20077 | -97.66193 | 488 ft | 8 kts | 49° |
| 2026-04-21 04:05 | 30.20104 | -97.66153 | 486 ft | 5 kts | 40° |
| 2026-04-21 04:05 | 30.20127 | -97.66138 | 484 ft | 2 kts | 11° |
| 2026-04-21 04:05 | 30.20144 | -97.66147 | 488 ft | 4 kts | 329° |
| 2026-04-21 04:05 | 30.20168 | -97.66167 | 485 ft | 1 kts | 317° |
| 2026-04-21 04:06 | 30.20173 | -97.66175 | 485 ft | 0 kts | 313° |
| 2026-04-21 04:06 | 30.20176 | -97.66177 | 485 ft | 0 kts | 313° |
| 2026-04-21 04:06 | 30.20177 | -97.66179 | 485 ft | 0 kts | 313° |
| 2026-04-21 04:07 | 30.20189 | -97.66185 | 489 ft | 8 kts | 339° |
| 2026-04-21 04:07 | 30.20219 | -97.66196 | 491 ft | 1 kts | 332° |
| 2026-04-21 04:07 | 30.20225 | -97.66209 | 495 ft | 2 kts | 295° |
| 2026-04-21 04:08 | 30.20227 | -97.66216 | 494 ft | 2 kts | 290° |
| 2026-04-21 04:08 | 30.20228 | -97.66219 | 494 ft | 0 kts | 292° |